< < Back
Terminal Aerodrome Forecast


Current Version              Previous Versions:   1  2  3  4  5  6  7  8  9  

Terminal Aerodrome Forecast

757
FTAK31 PAJN 302300
TAFAGS
TAF
PAGS 302327Z 3100/3124 VRB03KT P6SM VCSH SCT022 OVC045
      TEMPO 3100/3102 6SM -RA BKN022
     FM310600 VRB05KT P6SM VCSH SCT010 OVC025
     FM311200 14006KT P6SM -SHRA BKN015 OVC025
      AMD NOT SKED=



Latest METAR

351
SAUS70 KWBC 310600 RRU
MTRAGS
METAR KAGS 310553Z AUTO 00000KT 10SM CLR 06/06 A2994 RMK AO2 SLP136
T00610056 10128 20061 58007


USA.gov is the U.S. government's official web portal to all federal, state and local government web resources and services.